Class. scratch ↓ | Class. categorie ↓ | Dossard ↓ | Nom ↓ | Club ↑ | T. officiel ↓ | ||
|---|---|---|---|---|---|---|---|
| 20 / 363 | 1 ESM / 4 | 807 | YP ? | 01:05:45 | |||
| 21 / 363 | 13 SEM / 85 | 556 | VB ? | 01:05:49 | |||
| 22 / 363 | 14 SEM / 85 | 674 | RH ? | 01:06:00 | |||
| Disqualifié | SEF | 669 | MG ? | 01:06:23 | |||
| 23 / 363 | 15 SEM / 85 | 891 | AY ? | 01:06:36 | |||
| 24 / 363 | 16 SEM / 85 | 849 | AR ? | 01:06:41 | |||
| 28 / 363 | 18 SEM / 85 | 743 | FL ? | 01:07:04 | |||
| 30 / 363 | 20 SEM / 85 | 581 | AC ? | 01:07:58 | |||
| 32 / 363 | 21 SEM / 85 | 815 | LP ? | 01:08:26 | |||
| 37 / 363 | 9 V1M / 57 | 778 | JM ? | 01:09:02 | |||
| 38 / 363 | 22 SEM / 85 | 814 | RP ? | 01:09:06 | |||
| 41 / 363 | 11 V1M / 57 | 681 | FH ? | 01:09:18 | |||
| 42 / 363 | 12 V1M / 57 | 562 | SC ? | 01:09:19 | |||
| 45 / 363 | 3 V2M / 46 | 684 | GH ? | 01:10:05 | |||
| 48 / 363 | 24 SEM / 85 | 736 | JL ? | 01:10:53 | |||
| 55 / 363 | 3 ESM / 4 | 526 | JB ? | 01:11:14 | |||
| 56 / 363 | 28 SEM / 85 | 853 | MR ? | 01:11:24 | |||
| 58 / 363 | 29 SEM / 85 | 880 | AT ? | 01:11:34 | |||
| 59 / 363 | 1 CAM / 3 | 607 | GD ? | 01:11:35 | |||
| 64 / 363 | 30 SEM / 85 | 545 | JB ? | 01:12:11 | |||
| 66 / 363 | 31 SEM / 85 | 564 | FC ? | 01:12:30 | |||
| 67 / 363 | 18 V1M / 57 | 605 | GD ? | 01:12:30 | |||
| 69 / 363 | 1 ESF / 2 | 760 | FM ? | 01:12:41 | |||
| 70 / 363 | 19 V1M / 57 | 738 | FL ? | 01:12:44 | |||
| 73 / 363 | 32 SEM / 85 | 879 | MT ? | 01:13:03 | |||
| 363 / 363 | 85 SEM / 85 | 757 | HL ? | 01:13:11 | |||
| 78 / 363 | 34 SEM / 85 | 856 | GS ? | 01:13:21 | |||
| 80 / 363 | 36 SEM / 85 | 542 | AB ? | 01:13:31 | |||
| 81 / 363 | 37 SEM / 85 | 570 | AC ? | 01:13:39 | |||
| 83 / 363 | 39 SEM / 85 | 739 | JL ? | 01:13:43 | |||
| 86 / 363 | 40 SEM / 85 | 543 | MB ? | 01:13:55 | |||
| 87 / 363 | 41 SEM / 85 | 811 | RP ? | 01:14:39 | |||
| 90 / 363 | 20 V1M / 57 | 829 | OQ ? | 01:14:55 | |||
| 93 / 363 | 22 V1M / 57 | 847 | DR ? | 01:15:29 | |||
| 94 / 363 | 42 SEM / 85 | 612 | TD ? | 01:15:34 | |||
| 97 / 363 | 43 SEM / 85 | 627 | FE ? | 01:15:52 | |||
| 98 / 363 | 24 V1M / 57 | 716 | CL ? | 01:15:56 | |||
| 101 / 363 | 45 SEM / 85 | 555 | MB ? | 01:16:25 | |||
| 102 / 363 | 46 SEM / 85 | 694 | JJ ? | 01:16:32 | |||
| 103 / 363 | 25 V1M / 57 | 552 | GB ? | 01:16:45 | |||
| 104 / 363 | 47 SEM / 85 | 746 | LL ? | 01:16:53 | |||
| 106 / 363 | 14 V2M / 46 | 502 | JA ? | 01:16:58 | |||
| 107 / 363 | 26 V1M / 57 | 585 | NC ? | 01:17:07 | |||
| 108 / 363 | 48 SEM / 85 | 652 | PG ? | 01:17:15 | |||
| 110 / 363 | 28 V1M / 57 | 713 | ML ? | 01:17:38 | |||
| 112 / 363 | 30 V1M / 57 | 868 | PS ? | 01:18:16 | |||
| 117 / 363 | 5 SEF / 50 | 508 | MA ? | 01:18:22 | |||
| 118 / 363 | 49 SEM / 85 | 782 | SM ? | 01:18:22 | |||
| 119 / 363 | 33 V1M / 57 | 687 | PI ? | 01:18:36 | |||
| 120 / 363 | 34 V1M / 57 | 726 | ML ? | 01:18:39 |
Contactez l'assistance JeVeuxCourir.fr !
Avec Listino Chrono, vous pouvez consulter votre classement en ligne quelques secondes après votre arrivée, et même avant pour les temps intermédiaires !